createdAt,value
2023-05-10T00:01:24.322Z,13.18
2023-05-10T00:03:51.546Z,13.12
2023-05-10T00:06:18.808Z,13.12
2023-05-10T00:08:46.673Z,13.12
2023-05-10T00:11:13.808Z,13.09
2023-05-10T00:13:41.529Z,13.05
2023-05-10T00:16:08.821Z,12.98
2023-05-10T00:18:36.071Z,12.98
2023-05-10T00:21:03.386Z,12.97
2023-05-10T00:23:30.535Z,12.97
2023-05-10T00:25:58.008Z,12.97
2023-05-10T00:28:25.208Z,12.94
2023-05-10T00:30:52.344Z,12.92
2023-05-10T00:33:19.515Z,12.92
2023-05-10T00:35:46.671Z,12.94
2023-05-10T00:38:13.940Z,12.94
2023-05-10T00:40:42.119Z,12.98
2023-05-10T00:43:16.071Z,12.97
2023-05-10T00:45:43.330Z,12.96
2023-05-10T00:48:10.593Z,12.92
2023-05-10T00:50:38.299Z,12.92
2023-05-10T00:53:05.551Z,12.85
2023-05-10T00:55:32.788Z,12.81
2023-05-10T00:58:00.028Z,12.80
2023-05-10T01:00:27.339Z,12.73
2023-05-10T01:02:55.520Z,12.77
2023-05-10T01:05:23.659Z,12.75
2023-05-10T01:07:52.006Z,12.71
2023-05-10T01:10:19.477Z,12.70
2023-05-10T01:12:48.656Z,12.69
2023-05-10T01:15:18.154Z,12.67
2023-05-10T01:17:48.686Z,12.68
2023-05-10T01:20:16.878Z,12.69
2023-05-10T01:23:24.962Z,12.72
2023-05-10T01:26:36.072Z,12.71
2023-05-10T01:29:37.294Z,12.74
2023-05-10T01:32:42.778Z,12.68
2023-05-10T01:35:41.084Z,12.65
2023-05-10T01:38:38.325Z,12.58
2023-05-10T01:41:37.724Z,12.56
2023-05-10T01:44:38.346Z,12.50
2023-05-10T01:47:27.323Z,12.42
2023-05-10T01:49:56.949Z,12.38
2023-05-10T01:52:34.112Z,12.36
2023-05-10T01:55:07.590Z,12.30
2023-05-10T01:57:40.539Z,12.26
2023-05-10T02:00:10.395Z,12.23
2023-05-10T02:02:49.736Z,12.21
2023-05-10T02:05:18.863Z,12.14
2023-05-10T02:07:46.692Z,12.06
2023-05-10T02:10:15.658Z,12.04
2023-05-10T02:12:48.730Z,12.02
2023-05-10T02:15:24.128Z,11.99
2023-05-10T02:17:53.949Z,11.98
2023-05-10T02:20:23.532Z,11.93
2023-05-10T02:22:57.314Z,11.92
2023-05-10T02:25:26.577Z,11.90
2023-05-10T02:27:57.165Z,11.92
2023-05-10T02:30:24.944Z,11.90
2023-05-10T02:32:53.638Z,11.90
2023-05-10T02:35:21.849Z,11.87
2023-05-10T02:37:49.732Z,11.90
2023-05-10T02:40:18.802Z,11.90
2023-05-10T02:42:48.736Z,11.89
2023-05-10T02:45:22.949Z,11.93
2023-05-10T02:47:50.705Z,11.89
2023-05-10T02:50:18.262Z,11.88
2023-05-10T02:52:54.873Z,11.87
2023-05-10T02:55:27.977Z,11.88
2023-05-10T02:58:02.407Z,11.90
2023-05-10T03:00:30.239Z,11.88
2023-05-10T03:02:57.615Z,11.87
2023-05-10T03:05:26.697Z,11.84
2023-05-10T03:07:54.625Z,11.83
2023-05-10T03:10:28.839Z,11.84
2023-05-10T03:13:12.108Z,11.84
2023-05-10T03:15:54.830Z,11.80
2023-05-10T03:18:57.901Z,11.91
2023-05-10T03:21:29.793Z,11.80
2023-05-10T03:24:12.834Z,11.82
2023-05-10T03:26:41.812Z,11.83
2023-05-10T03:29:15.562Z,11.83
2023-05-10T03:31:43.267Z,11.80
2023-05-10T03:34:10.621Z,11.74
2023-05-10T03:36:37.772Z,11.77
2023-05-10T03:39:04.885Z,11.78
2023-05-10T03:41:32.076Z,11.77
2023-05-10T03:43:59.290Z,11.71
2023-05-10T03:46:26.569Z,11.73
2023-05-10T03:48:53.968Z,11.70
2023-05-10T03:51:21.389Z,11.73
2023-05-10T03:53:49.372Z,11.77
2023-05-10T03:56:16.636Z,11.80
2023-05-10T03:58:43.778Z,11.76
2023-05-10T04:01:11.433Z,11.77
2023-05-10T04:03:39.175Z,11.74
2023-05-10T04:06:07.954Z,11.74
2023-05-10T04:08:35.292Z,11.74
2023-05-10T04:11:13.815Z,11.78
2023-05-10T04:13:41.104Z,11.76
2023-05-10T04:16:08.447Z,11.79
2023-05-10T04:18:36.146Z,11.77
2023-05-10T04:21:03.584Z,11.78
2023-05-10T04:23:30.740Z,11.72
2023-05-10T04:26:02.831Z,11.71
2023-05-10T04:28:30.007Z,11.68
2023-05-10T04:31:10.014Z,11.67
2023-05-10T04:33:37.970Z,11.64
2023-05-10T04:36:06.090Z,11.68
2023-05-10T04:38:33.231Z,11.66
2023-05-10T04:41:09.167Z,11.65
2023-05-10T04:43:37.694Z,11.67
2023-05-10T04:46:06.043Z,11.69
2023-05-10T04:48:33.144Z,11.76
2023-05-10T04:51:00.608Z,11.77
2023-05-10T04:53:28.323Z,11.79
2023-05-10T04:55:55.654Z,11.81
2023-05-10T04:58:22.845Z,11.77
2023-05-10T05:00:50.070Z,11.75
2023-05-10T05:03:17.364Z,11.78
2023-05-10T05:05:45.804Z,11.83
2023-05-10T05:08:12.912Z,11.83
2023-05-10T05:10:40.237Z,11.84
2023-05-10T05:13:07.445Z,11.77
2023-05-10T05:15:34.933Z,11.74
2023-05-10T05:18:02.125Z,11.74
2023-05-10T05:20:29.417Z,11.76
2023-05-10T05:22:56.572Z,11.72
2023-05-10T05:25:23.950Z,11.70
2023-05-10T05:27:51.071Z,11.68
2023-05-10T05:30:18.533Z,11.69
2023-05-10T05:32:45.981Z,11.69
2023-05-10T05:35:13.343Z,11.66
2023-05-10T05:37:40.981Z,11.67
2023-05-10T05:40:09.247Z,11.69
2023-05-10T05:42:36.392Z,11.66
2023-05-10T05:45:03.718Z,11.46
2023-05-10T05:47:31.717Z,11.32
2023-05-10T05:49:59.073Z,11.20
2023-05-10T05:52:26.234Z,11.26
2023-05-10T05:54:53.405Z,11.36
2023-05-10T05:57:20.512Z,11.37
2023-05-10T05:59:47.708Z,11.47
2023-05-10T06:02:14.957Z,11.53
2023-05-10T06:04:44.913Z,11.52
2023-05-10T06:07:14.930Z,11.65
2023-05-10T06:09:42.106Z,11.67
2023-05-10T06:12:09.233Z,11.74
2023-05-10T06:14:36.377Z,11.81
2023-05-10T06:17:05.979Z,11.88
2023-05-10T06:19:33.257Z,11.93
2023-05-10T06:22:00.433Z,11.93
2023-05-10T06:24:28.117Z,12.05
2023-05-10T06:26:55.242Z,12.12
2023-05-10T06:29:22.396Z,12.06
2023-05-10T06:31:49.553Z,12.10
2023-05-10T06:34:16.706Z,12.13
2023-05-10T06:36:44.241Z,12.12
2023-05-10T06:39:12.962Z,12.16
2023-05-10T06:41:40.088Z,12.22
2023-05-10T06:44:07.304Z,12.20
2023-05-10T06:46:34.485Z,12.22
2023-05-10T06:49:01.778Z,12.24
2023-05-10T06:51:29.031Z,12.29
2023-05-10T06:53:56.273Z,12.20
2023-05-10T06:56:23.686Z,12.27
2023-05-10T06:58:51.313Z,12.25
2023-05-10T07:01:18.758Z,12.10
2023-05-10T07:03:46.365Z,12.12
2023-05-10T07:06:29.361Z,12.19
2023-05-10T07:09:01.395Z,12.12
2023-05-10T07:11:29.987Z,12.21
2023-05-10T07:13:57.148Z,11.96
2023-05-10T07:16:24.879Z,11.96
2023-05-10T07:18:52.012Z,12.03
2023-05-10T07:21:19.227Z,11.99
2023-05-10T07:23:46.423Z,11.88
2023-05-10T07:26:13.606Z,12.06
2023-05-10T07:28:40.880Z,12.15
2023-05-10T07:31:08.047Z,12.16
2023-05-10T07:33:35.238Z,12.28
2023-05-10T07:36:02.653Z,12.47
2023-05-10T07:38:29.914Z,12.72
2023-05-10T07:40:57.153Z,12.78
2023-05-10T07:43:24.308Z,12.80
2023-05-10T07:45:52.736Z,12.76
2023-05-10T07:48:21.164Z,12.75
2023-05-10T07:50:48.343Z,12.72
2023-05-10T07:53:15.516Z,12.58
2023-05-10T07:55:42.714Z,12.63
2023-05-10T07:58:09.906Z,12.60
2023-05-10T08:00:40.185Z,12.59
2023-05-10T08:03:07.441Z,12.65
2023-05-10T08:05:35.791Z,12.68
2023-05-10T08:08:03.032Z,12.77
2023-05-10T08:10:30.304Z,12.82
2023-05-10T08:12:59.311Z,12.87
2023-05-10T08:15:26.534Z,12.89
2023-05-10T08:17:53.870Z,12.95
2023-05-10T08:20:21.574Z,13.01
2023-05-10T08:22:51.175Z,12.96
2023-05-10T08:25:19.274Z,12.95
2023-05-10T08:27:46.652Z,12.90
2023-05-10T08:30:14.216Z,12.84
2023-05-10T08:32:41.370Z,12.84
2023-05-10T08:35:08.704Z,12.81
2023-05-10T08:37:35.987Z,12.76
2023-05-10T08:40:04.168Z,12.80
2023-05-10T08:42:36.427Z,12.86
2023-05-10T08:45:05.684Z,12.70
2023-05-10T08:47:33.334Z,12.74
2023-05-10T08:50:03.921Z,12.93
2023-05-10T08:52:33.956Z,13.13
2023-05-10T08:55:01.255Z,13.04
2023-05-10T08:57:28.726Z,13.16
2023-05-10T08:59:56.010Z,13.01
2023-05-10T09:02:25.164Z,12.94
2023-05-10T09:04:52.524Z,13.32
2023-05-10T09:07:21.065Z,13.38
2023-05-10T09:09:49.475Z,13.80
2023-05-10T09:12:17.341Z,13.98
2023-05-10T09:14:46.564Z,14.04
2023-05-10T09:17:14.371Z,13.60
2023-05-10T09:19:41.563Z,13.28
2023-05-10T09:22:09.277Z,13.31
2023-05-10T09:24:37.810Z,13.31
2023-05-10T09:27:04.944Z,13.43
2023-05-10T09:29:44.361Z,13.44
2023-05-10T09:32:11.703Z,13.79
2023-05-10T09:34:42.178Z,14.02
2023-05-10T09:37:09.415Z,14.41
2023-05-10T09:39:38.839Z,14.43
2023-05-10T09:42:10.841Z,14.34
2023-05-10T09:44:39.056Z,14.15
2023-05-10T09:47:06.419Z,14.09
2023-05-10T09:49:34.168Z,14.19
2023-05-10T09:52:07.354Z,14.27
2023-05-10T09:54:35.638Z,14.09
2023-05-10T09:57:03.262Z,14.51
2023-05-10T09:59:31.158Z,14.87
2023-05-10T10:02:00.815Z,14.82
2023-05-10T10:04:28.444Z,14.22
2023-05-10T10:07:06.188Z,13.85
2023-05-10T10:09:35.102Z,13.78
2023-05-10T10:12:03.760Z,14.05
2023-05-10T10:14:31.376Z,14.06
2023-05-10T10:17:08.088Z,14.55
2023-05-10T10:19:37.283Z,14.14
2023-05-10T10:22:05.142Z,14.14
2023-05-10T10:24:32.794Z,14.05
2023-05-10T10:27:34.570Z,14.30
2023-05-10T10:30:43.500Z,14.05
2023-05-10T10:33:51.444Z,14.14
2023-05-10T10:36:18.732Z,14.10
2023-05-10T10:38:48.796Z,13.76
2023-05-10T10:41:36.338Z,13.59
2023-05-10T10:44:34.617Z,13.44
2023-05-10T10:47:23.844Z,13.40
2023-05-10T10:49:57.207Z,13.45
2023-05-10T10:52:34.115Z,13.37
2023-05-10T10:55:19.937Z,12.88
2023-05-10T10:57:49.917Z,12.85
2023-05-10T11:00:33.387Z,12.78
2023-05-10T11:03:09.636Z,13.10
2023-05-10T11:05:44.170Z,13.03
2023-05-10T11:08:31.912Z,13.50
2023-05-10T11:11:03.146Z,13.27
2023-05-10T11:13:50.076Z,13.54
2023-05-10T11:16:25.252Z,13.36
2023-05-10T11:19:09.256Z,13.39
2023-05-10T11:22:14.520Z,12.92
2023-05-10T11:24:57.596Z,12.95
2023-05-10T11:27:24.840Z,12.56
2023-05-10T11:29:55.218Z,13.15
2023-05-10T11:32:23.052Z,13.41
2023-05-10T11:34:50.415Z,13.26
2023-05-10T11:37:19.814Z,12.77
2023-05-10T11:39:48.613Z,12.88
2023-05-10T11:42:15.978Z,13.70
2023-05-10T11:44:45.302Z,14.10
2023-05-10T11:47:13.501Z,13.50
2023-05-10T11:49:44.931Z,13.07
2023-05-10T11:52:12.413Z,12.86
2023-05-10T11:54:56.306Z,13.17
2023-05-10T11:57:29.464Z,13.27
2023-05-10T11:59:58.664Z,13.33
2023-05-10T12:02:26.340Z,12.87
2023-05-10T12:04:53.871Z,13.00
2023-05-10T12:07:21.093Z,13.28
2023-05-10T12:10:17.515Z,13.38
2023-05-10T12:12:49.084Z,12.67
2023-05-10T12:15:23.354Z,12.91
2023-05-10T12:17:52.046Z,13.08
2023-05-10T12:20:23.296Z,13.58
2023-05-10T12:23:00.718Z,13.80
2023-05-10T12:25:35.799Z,13.77
2023-05-10T12:28:10.539Z,13.36
2023-05-10T12:30:39.717Z,12.92
2023-05-10T12:33:17.591Z,12.91
2023-05-10T12:35:48.727Z,13.09
2023-05-10T12:38:40.001Z,13.46
2023-05-10T12:41:19.187Z,13.64
2023-05-10T12:43:47.346Z,13.63
2023-05-10T12:46:18.486Z,13.71
2023-05-10T12:49:06.866Z,13.71
2023-05-10T12:51:36.004Z,13.56
2023-05-10T12:54:04.905Z,14.00
2023-05-10T12:56:32.119Z,14.18
2023-05-10T12:58:59.277Z,14.37
2023-05-10T13:01:26.518Z,14.13
2023-05-10T13:03:53.693Z,14.20
2023-05-10T13:06:20.863Z,14.04
2023-05-10T13:08:48.020Z,13.84
2023-05-10T13:11:17.862Z,14.06
2023-05-10T13:13:47.987Z,14.25
2023-05-10T13:16:15.312Z,14.36
2023-05-10T13:18:42.680Z,13.73
2023-05-10T13:21:09.864Z,13.58
2023-05-10T13:23:37.035Z,13.26
2023-05-10T13:26:04.227Z,13.65
2023-05-10T13:28:31.726Z,13.88
2023-05-10T13:31:00.910Z,14.44
2023-05-10T13:33:28.128Z,14.42
2023-05-10T13:35:55.861Z,15.02
2023-05-10T13:38:23.358Z,15.43
2023-05-10T13:40:53.606Z,15.28
2023-05-10T13:43:21.159Z,15.34
2023-05-10T13:45:48.480Z,14.60
2023-05-10T13:48:16.014Z,14.48
2023-05-10T13:50:44.002Z,14.73
2023-05-10T13:53:11.237Z,14.78
2023-05-10T13:55:38.466Z,15.01
2023-05-10T13:58:05.798Z,14.87
2023-05-10T14:00:33.059Z,14.22
2023-05-10T14:03:00.489Z,14.22
2023-05-10T14:05:28.205Z,14.28
2023-05-10T14:07:55.776Z,14.51
2023-05-10T14:10:22.990Z,14.55
2023-05-10T14:12:51.537Z,14.13
2023-05-10T14:15:19.161Z,13.95
2023-05-10T14:17:46.654Z,13.32
2023-05-10T14:20:13.821Z,13.29
2023-05-10T14:22:41.468Z,13.47
2023-05-10T14:25:09.599Z,13.77
2023-05-10T14:27:36.734Z,13.78
2023-05-10T14:30:04.454Z,13.69
2023-05-10T14:32:32.958Z,13.80
2023-05-10T14:35:00.637Z,14.01
2023-05-10T14:37:27.838Z,13.73
2023-05-10T14:39:55.372Z,13.95
2023-05-10T14:42:22.713Z,14.02
2023-05-10T14:44:49.968Z,14.21
2023-05-10T14:47:17.280Z,14.12
2023-05-10T14:49:44.375Z,13.94
2023-05-10T14:52:13.107Z,13.82
2023-05-10T14:54:41.222Z,13.80
2023-05-10T14:57:08.698Z,13.91
2023-05-10T14:59:35.919Z,13.88
2023-05-10T15:02:05.155Z,13.92
2023-05-10T15:04:33.151Z,13.81
2023-05-10T15:07:01.428Z,13.69
2023-05-10T15:09:28.856Z,13.75
2023-05-10T15:11:56.700Z,13.62
2023-05-10T15:14:24.455Z,13.75
2023-05-10T15:16:52.887Z,13.81
2023-05-10T15:19:21.532Z,13.66
2023-05-10T15:21:48.763Z,13.60
2023-05-10T15:24:16.006Z,13.57
2023-05-10T15:26:43.151Z,13.54
2023-05-10T15:29:10.810Z,13.44
2023-05-10T15:31:38.144Z,13.68
2023-05-10T15:34:05.609Z,13.54
2023-05-10T15:36:33.515Z,13.69
2023-05-10T15:39:02.035Z,13.82
2023-05-10T15:41:29.729Z,13.97
2023-05-10T15:43:57.124Z,14.19
2023-05-10T15:46:25.304Z,14.21
2023-05-10T15:48:52.937Z,14.20
2023-05-10T15:51:20.191Z,13.95
2023-05-10T15:54:05.271Z,13.76
2023-05-10T15:56:34.497Z,13.89
2023-05-10T15:59:01.765Z,13.90
2023-05-10T16:01:29.318Z,13.87
2023-05-10T16:03:56.937Z,13.90
2023-05-10T16:06:24.103Z,13.97
2023-05-10T16:08:52.874Z,14.01
2023-05-10T16:11:21.558Z,14.21
2023-05-10T16:13:48.852Z,14.39
2023-05-10T16:16:16.112Z,14.08
2023-05-10T16:18:43.387Z,14.33
2023-05-10T16:21:10.831Z,14.28
2023-05-10T16:23:38.035Z,14.41
2023-05-10T16:26:05.187Z,14.31
2023-05-10T16:28:32.439Z,14.43
2023-05-10T16:30:59.841Z,14.55
2023-05-10T16:33:27.142Z,14.21
2023-05-10T16:35:54.280Z,14.40
2023-05-10T16:38:21.843Z,14.57
2023-05-10T16:40:49.149Z,14.52
2023-05-10T16:43:16.509Z,14.75
2023-05-10T16:45:43.798Z,14.75
2023-05-10T16:48:10.972Z,14.80
2023-05-10T16:50:38.239Z,15.01
2023-05-10T16:53:05.446Z,15.58
2023-05-10T16:55:32.570Z,15.90
2023-05-10T16:58:00.870Z,16.03
2023-05-10T17:00:27.984Z,16.05
2023-05-10T17:02:55.484Z,15.91
2023-05-10T17:05:23.201Z,16.12
2023-05-10T17:07:50.456Z,16.03
2023-05-10T17:10:18.893Z,15.86
2023-05-10T17:12:46.289Z,15.62
2023-05-10T17:15:13.578Z,15.42
2023-05-10T17:17:40.767Z,15.55
2023-05-10T17:20:09.106Z,15.50
2023-05-10T17:22:36.206Z,15.58
2023-05-10T17:25:04.171Z,15.53
2023-05-10T17:27:31.514Z,15.40
2023-05-10T17:29:59.428Z,15.25
2023-05-10T17:32:26.859Z,15.21
2023-05-10T17:34:54.005Z,15.01
2023-05-10T17:37:21.239Z,14.87
2023-05-10T17:39:48.436Z,14.85
2023-05-10T17:42:18.878Z,14.82
2023-05-10T17:44:46.266Z,14.71
2023-05-10T17:47:13.510Z,14.65
2023-05-10T17:49:40.857Z,14.47
2023-05-10T17:52:08.128Z,14.41
2023-05-10T17:54:35.561Z,14.36
2023-05-10T17:57:03.705Z,14.30
2023-05-10T17:59:30.977Z,13.98
2023-05-10T18:01:58.189Z,13.93
2023-05-10T18:04:25.978Z,13.92
2023-05-10T18:07:00.938Z,13.84
2023-05-10T18:09:29.169Z,13.86
2023-05-10T18:11:56.404Z,13.76
2023-05-10T18:14:38.991Z,13.69
2023-05-10T18:17:07.831Z,13.67
2023-05-10T18:19:35.269Z,13.63
2023-05-10T18:22:02.722Z,13.62
2023-05-10T18:24:38.944Z,13.63
2023-05-10T18:27:09.499Z,13.65
2023-05-10T18:29:36.962Z,13.64
2023-05-10T18:32:04.594Z,13.63
2023-05-10T18:34:31.840Z,13.57
2023-05-10T18:36:59.745Z,13.53
2023-05-10T18:39:26.998Z,13.51
2023-05-10T18:41:54.289Z,13.52
2023-05-10T18:44:23.184Z,13.47
2023-05-10T18:46:54.093Z,13.40
2023-05-10T18:49:21.463Z,13.36
2023-05-10T18:51:48.588Z,13.38
2023-05-10T18:54:15.890Z,13.35
2023-05-10T18:56:45.167Z,13.34
2023-05-10T18:59:13.132Z,13.31
2023-05-10T19:01:42.014Z,13.30
2023-05-10T19:04:09.318Z,13.26
2023-05-10T19:06:36.829Z,13.26
2023-05-10T19:09:04.404Z,13.22
2023-05-10T19:11:33.998Z,13.21
2023-05-10T19:14:02.355Z,13.18
2023-05-10T19:16:30.470Z,13.17
2023-05-10T19:18:58.040Z,13.14
2023-05-10T19:21:25.778Z,13.16
2023-05-10T19:23:53.592Z,13.15
2023-05-10T19:26:21.047Z,13.11
2023-05-10T19:28:50.879Z,13.10
2023-05-10T19:31:18.562Z,13.10
2023-05-10T19:33:46.839Z,13.10
2023-05-10T19:36:14.264Z,13.08
2023-05-10T19:38:41.558Z,13.08
2023-05-10T19:41:08.815Z,13.08
2023-05-10T19:43:39.761Z,13.09
2023-05-10T19:46:09.712Z,13.10
2023-05-10T19:48:37.076Z,13.13
2023-05-10T19:51:08.532Z,13.16
2023-05-10T19:53:37.660Z,13.16
2023-05-10T19:56:07.086Z,13.16
2023-05-10T19:58:34.506Z,13.16
2023-05-10T20:01:02.252Z,13.19
2023-05-10T20:03:29.987Z,13.15
2023-05-10T20:05:57.244Z,13.13
2023-05-10T20:08:25.395Z,13.06
2023-05-10T20:10:53.031Z,13.03
2023-05-10T20:13:22.573Z,13.00
2023-05-10T20:15:49.706Z,12.95
2023-05-10T20:18:22.574Z,12.90
2023-05-10T20:20:59.112Z,12.85
2023-05-10T20:23:26.751Z,12.76
2023-05-10T20:25:54.622Z,12.71
2023-05-10T20:28:25.201Z,12.65
2023-05-10T20:31:07.526Z,12.59
2023-05-10T20:33:34.782Z,12.55
2023-05-10T20:36:02.025Z,12.54
2023-05-10T20:38:29.195Z,12.50
2023-05-10T20:40:56.410Z,12.48
2023-05-10T20:43:23.780Z,12.44
2023-05-10T20:45:51.091Z,12.42
2023-05-10T20:48:19.643Z,12.39
2023-05-10T20:50:49.215Z,12.38
2023-05-10T20:53:22.952Z,12.37
2023-05-10T20:55:51.698Z,12.38
2023-05-10T20:58:20.146Z,12.34
2023-05-10T21:00:47.765Z,12.30
2023-05-10T21:03:16.854Z,12.27
2023-05-10T21:05:44.168Z,12.23
2023-05-10T21:08:16.047Z,12.27
2023-05-10T21:10:50.264Z,12.28
2023-05-10T21:20:48.020Z,12.33
2023-05-10T21:23:17.482Z,12.35
2023-05-10T21:25:44.673Z,12.40
2023-05-10T21:28:21.808Z,12.42
2023-05-10T21:30:50.203Z,12.45
2023-05-10T21:33:17.294Z,12.44
2023-05-10T21:35:46.935Z,12.41
2023-05-10T21:38:14.271Z,12.40
2023-05-10T21:40:41.853Z,12.41
2023-05-10T21:43:09.617Z,12.43
2023-05-10T21:45:37.142Z,12.46
2023-05-10T21:48:04.546Z,12.45
2023-05-10T21:50:31.824Z,12.42
2023-05-10T21:53:00.346Z,12.43
2023-05-10T21:55:27.886Z,12.42
2023-05-10T21:57:55.052Z,12.41
2023-05-10T22:00:22.575Z,12.41
2023-05-10T22:02:50.024Z,12.36
2023-05-10T22:05:21.987Z,12.38
2023-05-10T22:07:49.175Z,12.37
2023-05-10T22:10:16.963Z,12.32
2023-05-10T22:12:44.293Z,12.31
2023-05-10T22:15:11.910Z,12.30
2023-05-10T22:17:41.642Z,12.31
2023-05-10T22:20:09.531Z,12.32
2023-05-10T22:22:36.829Z,12.30
2023-05-10T22:25:08.559Z,12.29
2023-05-10T22:27:36.147Z,12.28
2023-05-10T22:30:04.923Z,12.30
2023-05-10T22:32:34.516Z,12.31
2023-05-10T22:35:03.337Z,12.42
2023-05-10T22:37:30.738Z,12.39
2023-05-10T22:39:57.916Z,12.38
2023-05-10T22:42:25.057Z,12.37
2023-05-10T22:44:52.270Z,12.36
2023-05-10T22:47:19.412Z,12.32
2023-05-10T22:49:46.992Z,12.32
2023-05-10T22:52:14.168Z,12.29
2023-05-10T22:54:41.472Z,12.25
2023-05-10T22:57:08.729Z,12.21
2023-05-10T22:59:35.997Z,12.22
2023-05-10T23:02:03.565Z,12.20
2023-05-10T23:04:31.264Z,12.18
2023-05-10T23:06:58.825Z,12.14
2023-05-10T23:09:26.008Z,12.14
2023-05-10T23:11:53.307Z,12.10
2023-05-10T23:14:20.445Z,12.10
2023-05-10T23:16:47.608Z,12.07
2023-05-10T23:19:14.789Z,12.09
2023-05-10T23:21:42.049Z,12.07
2023-05-10T23:24:09.364Z,12.06
2023-05-10T23:26:36.584Z,12.07
2023-05-10T23:29:03.789Z,12.06
2023-05-10T23:31:31.252Z,12.07
2023-05-10T23:33:58.412Z,12.07
2023-05-10T23:36:25.744Z,12.05
2023-05-10T23:38:52.914Z,12.04
2023-05-10T23:41:20.077Z,12.02
2023-05-10T23:43:47.217Z,12.02
2023-05-10T23:46:14.405Z,12.04
2023-05-10T23:48:41.648Z,12.01
2023-05-10T23:51:08.877Z,12.06
2023-05-10T23:53:36.479Z,12.05
2023-05-10T23:56:04.904Z,12.05
2023-05-10T23:58:32.060Z,12.06
